Ever Develop — 3FLF8 — position and weather

sailwx.info

Track history (hours):
 
Tides and Currents Weather Stations Pressure Air Temp Water Temp Dewpoint Dewpoint Depression Visibility Wind Speed Wind Dir Waves Ship Positions

Ever Develop

Last reported at 2015-Apr-10 01:33 UTC. Time now 2015-Apr-19 21:05 UTC.
Position N 40°19' W 073°40'.
Warning: this ship's position is 9 days out of date.

Type: Ship (hazmat cat D). MMSI: 356391000.

Date/timePositionNaut miles runAvg speedWind from/ knotsBaromVisibWave heightAir tempDewpointWater temp
2015-Apr-10 01:33N 40°19' W 073°40'9 9.4
2015-Apr-10 00:33N 40°26' W 073°48'9 9.5
2015-Apr-09 23:33N 40°31' W 073°59'10 9.5
2015-Apr-09 22:33N 40°39' W 074°06'2 2.4
2015-Apr-09 21:33N 40°40' W 074°08'1 0.6
2015-Apr-09 20:30N 40°41' W 074°09'0 0.0
2015-Apr-09 19:33N 40°41' W 074°09'0 0.0
2015-Apr-09 18:33N 40°41' W 074°09'0 0.0
2015-Apr-09 17:33N 40°41' W 074°09'0 0.0
2015-Apr-09 16:33N 40°41' W 074°09'0 0.0
2015-Apr-09 15:33N 40°41' W 074°09'0 0.0
2015-Apr-09 14:33N 40°41' W 074°09'0 0.0
2015-Apr-09 13:33N 40°41' W 074°09'0 0.0
2015-Apr-09 12:33N 40°41' W 074°09'0 0.0
2015-Apr-09 11:33N 40°41' W 074°09'2 1.1
2015-Apr-09 09:33N 40°39' W 074°09'5 5.1
2015-Apr-09 08:33N 40°37' W 074°03'1110.6
2015-Apr-09 07:32N 40°29' W 073°53'7 7.3
2015-Apr-09 06:31N 40°23' W 073°47'10 9.0
2015-Apr-09 05:28N 40°14' W 073°45'1110.9
2015-Apr-09 04:27N 40°03' W 073°44'1212.9
2015-Apr-09 03:33N 39°51' W 073°42'1414.4
2015-Apr-09 02:33N 39°37' W 073°43'149 3.7
2015-Apr-07 10:33N 38°04' W 076°13'3718.2
2015-Apr-07 08:31N 38°40' W 076°25'1616.7
2015-Apr-07 07:33N 38°56' W 076°23'1212.4
2015-Apr-07 06:33N 39°08' W 076°24'10 9.9
2015-Apr-07 05:33N 39°15' W 076°34'1 0.7
2015-Apr-07 04:31N 39°15' W 076°33'0 0.0
2015-Apr-07 03:32N 39°15' W 076°33'0 0.0
2015-Apr-07 02:31N 39°15' W 076°33'0 0.0
2015-Apr-07 01:32N 39°15' W 076°33'0 0.0
2015-Apr-07 00:26N 39°15' W 076°33'0 0.0
2015-Apr-06 23:31N 39°15' W 076°33'0 0.0
2015-Apr-06 22:31N 39°15' W 076°33'0 0.0
2015-Apr-06 21:31N 39°15' W 076°33'0 0.0
2015-Apr-06 20:31N 39°15' W 076°33'0 0.0
2015-Apr-06 19:31N 39°15' W 076°33'0 0.0
2015-Apr-06 18:31N 39°15' W 076°33'0 0.0
2015-Apr-06 17:31N 39°15' W 076°33'0 0.0
2015-Apr-06 16:31N 39°15' W 076°33'0 0.0
2015-Apr-06 15:31N 39°15' W 076°33'0 0.0
2015-Apr-06 14:31N 39°15' W 076°33'0 0.0
2015-Apr-06 13:31N 39°15' W 076°33'0 0.0
2015-Apr-06 12:28N 39°15' W 076°33'0 0.0
2015-Apr-06 11:31N 39°15' W 076°33'0 0.0
2015-Apr-06 10:31N 39°15' W 076°33'2 1.9
2015-Apr-06 09:33N 39°14' W 076°32'9 9.1
2015-Apr-06 08:33N 39°07' W 076°24'1514.8
2015-Apr-06 07:33N 38°52' W 076°24'3819.0
2015-Apr-06 05:33N 38°15' W 076°16'2019.9
2015-Apr-06 04:33N 37°55' W 076°09'  
Track history (hours):
 
Tides and Currents Weather Stations Pressure Air Temp Water Temp Dewpoint Dewpoint Depression Visibility Wind Speed Wind Dir Waves Ship Positions

Ever Develop

Last reported at 2015-Apr-10 01:33 UTC. Time now 2015-Apr-19 21:05 UTC.
Position N 40°19' W 073°40'.
Warning: this ship's position is 9 days out of date.

Type: Ship (hazmat cat D). MMSI: 356391000.

Date/timePositionNaut miles runAvg speedWind from/ knotsBaromVisibWave heightAir tempDewpointWater temp
2015-Apr-10 01:33N 40°19' W 073°40'9 9.4
2015-Apr-10 00:33N 40°26' W 073°48'9 9.5
2015-Apr-09 23:33N 40°31' W 073°59'10 9.5
2015-Apr-09 22:33N 40°39' W 074°06'2 2.4
2015-Apr-09 21:33N 40°40' W 074°08'1 0.6
2015-Apr-09 20:30N 40°41' W 074°09'0 0.0
2015-Apr-09 19:33N 40°41' W 074°09'0 0.0
2015-Apr-09 18:33N 40°41' W 074°09'0 0.0
2015-Apr-09 17:33N 40°41' W 074°09'0 0.0
2015-Apr-09 16:33N 40°41' W 074°09'0 0.0
2015-Apr-09 15:33N 40°41' W 074°09'0 0.0
2015-Apr-09 14:33N 40°41' W 074°09'0 0.0
2015-Apr-09 13:33N 40°41' W 074°09'0 0.0
2015-Apr-09 12:33N 40°41' W 074°09'0 0.0
2015-Apr-09 11:33N 40°41' W 074°09'2 1.1
2015-Apr-09 09:33N 40°39' W 074°09'5 5.1
2015-Apr-09 08:33N 40°37' W 074°03'1110.6
2015-Apr-09 07:32N 40°29' W 073°53'7 7.3
2015-Apr-09 06:31N 40°23' W 073°47'10 9.0
2015-Apr-09 05:28N 40°14' W 073°45'1110.9
2015-Apr-09 04:27N 40°03' W 073°44'1212.9
2015-Apr-09 03:33N 39°51' W 073°42'1414.4
2015-Apr-09 02:33N 39°37' W 073°43'149 3.7
2015-Apr-07 10:33N 38°04' W 076°13'3718.2
2015-Apr-07 08:31N 38°40' W 076°25'1616.7
2015-Apr-07 07:33N 38°56' W 076°23'1212.4
2015-Apr-07 06:33N 39°08' W 076°24'10 9.9
2015-Apr-07 05:33N 39°15' W 076°34'1 0.7
2015-Apr-07 04:31N 39°15' W 076°33'0 0.0
2015-Apr-07 03:32N 39°15' W 076°33'0 0.0
2015-Apr-07 02:31N 39°15' W 076°33'0 0.0
2015-Apr-07 01:32N 39°15' W 076°33'0 0.0
2015-Apr-07 00:26N 39°15' W 076°33'0 0.0
2015-Apr-06 23:31N 39°15' W 076°33'0 0.0
2015-Apr-06 22:31N 39°15' W 076°33'0 0.0
2015-Apr-06 21:31N 39°15' W 076°33'0 0.0
2015-Apr-06 20:31N 39°15' W 076°33'0 0.0
2015-Apr-06 19:31N 39°15' W 076°33'0 0.0
2015-Apr-06 18:31N 39°15' W 076°33'0 0.0
2015-Apr-06 17:31N 39°15' W 076°33'0 0.0
2015-Apr-06 16:31N 39°15' W 076°33'0 0.0
2015-Apr-06 15:31N 39°15' W 076°33'0 0.0
2015-Apr-06 14:31N 39°15' W 076°33'0 0.0
2015-Apr-06 13:31N 39°15' W 076°33'0 0.0
2015-Apr-06 12:28N 39°15' W 076°33'0 0.0
2015-Apr-06 11:31N 39°15' W 076°33'0 0.0
2015-Apr-06 10:31N 39°15' W 076°33'2 1.9
2015-Apr-06 09:33N 39°14' W 076°32'9 9.1
2015-Apr-06 08:33N 39°07' W 076°24'1514.8
2015-Apr-06 07:33N 38°52' W 076°24'3819.0
2015-Apr-06 05:33N 38°15' W 076°16'2019.9
2015-Apr-06 04:33N 37°55' W 076°09'  

Dump ship's entire track history